Time;durP1;ratioP1;P1;durP2;ratioP2;P2;SDS_P1;SDS_P2;PMS_P1;PMS_P2;Temp;Humidity;BMP_temperature;BMP_pressure;BME280_temperature;BME280_humidity;BME280_pressure;Samples;Min_cycle;Max_cycle;Signal;HPM_P1;HPM_P2
2023/12/17 00:00:54;;;;;;;9.43;4.47;;;;;;;-141.84;98.19;69653.38;4912503;29;20240;-58
2023/12/17 00:03:25;;;;;;;7.30;4.57;;;;;;;-141.84;98.30;70180.31;4911875;29;20245;-60
2023/12/17 00:05:54;;;;;;;8.47;4.13;;;;;;;-141.84;99.30;73607.09;4913448;29;20222;-56
2023/12/17 00:08:24;;;;;;;9.13;4.13;;;;;;;-141.84;100.00;79412.97;4881981;29;20234;-55
2023/12/17 00:10:53;;;;;;;12.13;5.03;;;;;;;-141.84;100.00;79941.19;4913629;29;20317;-57
2023/12/17 00:13:21;;;;;;;9.73;4.10;;;;;;;-141.84;100.00;81526.28;4914075;29;20249;-60
2023/12/17 00:15:52;;;;;;;8.50;4.70;;;;;;;-141.84;100.00;80997.84;4912885;29;20217;-62
2023/12/17 00:18:20;;;;;;;7.33;3.90;;;;;;;-141.84;100.00;79148.88;4913455;29;20234;-56
2023/12/17 00:20:49;;;;;;;9.63;3.97;;;;;;;-141.84;100.00;84962.78;4912639;29;20226;-57
2023/12/17 00:23:18;;;;;;;8.30;3.90;;;;;;;-141.84;100.00;84962.78;4912852;29;20522;-58
2023/12/17 00:25:48;;;;;;;6.33;3.63;;;;;;;-141.84;100.00;86814.44;4912193;29;20850;-58
2023/12/17 00:28:17;;;;;;;8.83;3.87;;;;;;;-141.84;100.00;82583.34;4911706;29;20218;-58
2023/12/17 00:30:46;;;;;;;7.43;3.93;;;;;;;-141.84;100.00;81526.28;4912509;29;20331;-58
2023/12/17 00:33:14;;;;;;;11.10;3.63;;;;;;;-141.84;100.00;87872.91;4912753;29;20800;-56
2023/12/17 00:35:43;;;;;;;9.23;3.87;;;;;;;-141.84;100.00;88402.22;4913385;29;20198;-58
2023/12/17 00:38:12;;;;;;;8.80;4.23;;;;;;;-141.84;100.00;87343.63;4912612;29;20237;-58
2023/12/17 00:40:41;;;;;;;7.03;3.67;;;;;;;-141.84;100.00;87343.63;4912162;29;20222;-58
2023/12/17 00:43:11;;;;;;;8.40;3.67;;;;;;;-141.84;100.00;90785.09;4911917;29;20228;-60
2023/12/17 00:45:39;;;;;;;5.53;3.60;;;;;;;-141.84;100.00;92904.41;4913664;29;20308;-65
2023/12/17 00:48:08;;;;;;;7.43;4.23;;;;;;;-141.84;100.00;95555.09;4913442;29;20251;-65
2023/12/17 00:50:36;;;;;;;10.33;4.23;;;;;;;-141.84;100.00;92904.41;4914759;29;20202;-65
2023/12/17 00:53:05;;;;;;;6.87;3.73;;;;;;;-141.84;100.00;91049.97;4906229;29;20617;-65
2023/12/17 00:55:34;;;;;;;7.17;3.70;;;;;;;-141.84;100.00;93434.41;4913177;29;21039;-65
2023/12/17 00:58:02;;;;;;;6.87;3.67;;;;;;;-141.84;100.00;95820.25;4895974;29;20265;-58
2023/12/17 01:00:32;;;;;;;7.60;3.83;;;;;;;-141.84;100.00;95024.81;4914420;29;20422;-58
2023/12/17 01:03:07;;;;;;;9.07;4.17;;;;;;;-141.84;100.00;95555.09;4914771;29;20293;-59
2023/12/17 01:05:37;;;;;;;9.47;4.27;;;;;;;-141.84;100.00;89196.38;4914576;29;20217;-56
2023/12/17 01:08:05;;;;;;;7.20;3.60;;;;;;;-141.84;100.00;92109.53;4914138;29;20226;-57
2023/12/17 01:10:34;;;;;;;8.90;4.53;;;;;;;-141.84;100.00;94229.53;4914036;29;20340;-57
2023/12/17 01:13:02;;;;;;;6.00;4.07;;;;;;;-141.84;100.00;92109.53;4864729;29;20233;-58
2023/12/17 01:15:32;;;;;;;8.93;4.27;;;;;;;-141.84;100.00;93169.38;4915240;29;20317;-56
2023/12/17 01:18:01;;;;;;;8.50;4.70;;;;;;;-141.84;100.00;89196.38;4913391;29;20208;-58
2023/12/17 01:20:30;;;;;;;6.47;4.37;;;;;;;-141.84;100.00;85756.25;4914561;29;20289;-59
2023/12/17 01:22:58;;;;;;;9.43;4.00;;;;;;;-141.84;100.00;87079.03;4914163;29;20285;-56
2023/12/17 01:25:27;;;;;;;10.20;4.10;;;;;;;-141.84;100.00;86020.75;4913555;29;20282;-57
2023/12/17 01:27:55;;;;;;;6.27;3.67;;;;;;;-141.84;100.00;85491.75;4913783;29;20578;-53
2023/12/17 01:30:24;;;;;;;8.00;4.10;;;;;;;-141.84;100.00;91049.97;4914098;29;20719;-57
2023/12/17 01:32:54;;;;;;;6.70;3.70;;;;;;;-141.84;100.00;94494.59;4913844;29;20246;-58
2023/12/17 01:35:23;;;;;;;8.77;4.23;;;;;;;-141.84;100.00;91579.72;4932897;29;20236;-58
2023/12/17 01:37:51;;;;;;;9.53;3.93;;;;;;;-141.84;100.00;91579.72;4924998;29;20310;-58
2023/12/17 01:40:20;;;;;;;6.77;4.27;;;;;;;-141.84;100.00;94229.53;4921980;29;20313;-57
2023/12/17 01:42:48;;;;;;;11.23;4.33;;;;;;;-141.84;100.00;94229.53;4916570;29;20234;-57
2023/12/17 01:45:17;;;;;;;7.87;4.00;;;;;;;-141.84;100.00;94494.59;4921589;29;20238;-54
2023/12/17 01:47:46;;;;;;;9.83;4.03;;;;;;;-141.84;100.00;93964.47;4906287;29;20218;-56
2023/12/17 01:50:16;;;;;;;8.77;4.30;;;;;;;-141.84;100.00;94759.69;4913630;29;20305;-55
2023/12/17 01:52:45;;;;;;;5.60;3.93;;;;;;;-141.84;100.00;96881.06;4895464;29;20233;-54
2023/12/17 01:55:14;;;;;;;7.13;4.00;;;;;;;-141.84;100.00;95024.81;4916701;29;20735;-58
2023/12/17 01:57:43;;;;;;;8.17;4.17;;;;;;;-141.84;100.00;95820.25;4916903;29;20289;-55
2023/12/17 02:00:13;;;;;;;7.53;4.20;;;;;;;-141.84;100.00;97676.88;4916972;29;20237;-54
2023/12/17 02:02:43;;;;;;;6.80;4.23;;;;;;;-141.84;100.00;96881.06;4917510;29;20282;-55
2023/12/17 02:05:11;;;;;;;5.37;3.63;;;;;;;-141.84;100.00;99003.56;4917022;29;20286;-55
2023/12/17 02:07:43;;;;;;;8.13;4.10;;;;;;;-141.84;100.00;97411.59;4917602;29;20313;-64
2023/12/17 02:10:11;;;;;;;8.37;4.67;;;;;;;-141.84;100.00;96615.84;4917264;29;20714;-64
2023/12/17 02:12:40;;;;;;;7.13;4.40;;;;;;;-141.84;100.00;97146.31;4916822;29;20260;-64
2023/12/17 02:15:09;;;;;;;7.93;4.17;;;;;;;-141.84;100.00;96350.63;4911271;29;20632;-63
2023/12/17 02:17:38;;;;;;;8.03;4.87;;;;;;;-141.84;100.00;95555.09;4917338;29;20206;-66
2023/12/17 02:20:08;;;;;;;7.13;4.23;;;;;;;-141.84;100.00;99534.38;4916749;29;20305;-64
2023/12/17 02:22:40;;;;;;;6.93;4.03;;;;;;;-141.84;100.00;101658.25;4918274;29;20253;-65
2023/12/17 02:25:10;;;;;;;8.43;4.57;;;;;;;-141.84;100.00;102455.00;4899407;29;20250;-56
2023/12/17 02:27:39;;;;;;;12.80;5.20;;;;;;;-141.84;100.00;104048.94;4916547;29;20229;-56
2023/12/17 02:30:09;;;;;;;7.50;4.13;;;;;;;-141.84;100.00;102455.00;4916898;29;20194;-59
2023/12/17 02:32:38;;;;;;;6.13;4.17;;;;;;;-141.84;100.00;105643.53;4915072;29;20250;-54
2023/12/17 02:35:07;;;;;;;8.47;4.43;;;;;;;-141.84;100.00;100596.16;4909069;29;20742;-59
2023/12/17 02:37:39;;;;;;;8.43;4.50;;;;;;;-141.84;100.00;100861.66;4918906;29;20308;-65
2023/12/17 02:40:10;;;;;;;7.23;4.77;;;;;;;-141.84;100.00;104314.66;4916722;29;20770;-64
2023/12/17 02:42:39;;;;;;;6.00;4.47;;;;;;;-141.84;100.00;100596.16;4916979;29;20275;-66
2023/12/17 02:45:09;;;;;;;7.30;4.30;;;;;;;-141.84;100.00;99534.38;4916310;29;20313;-63
2023/12/17 02:47:38;;;;;;;7.00;4.30;;;;;;;-141.84;100.00;98738.19;4914342;29;20799;-64
2023/12/17 02:50:08;;;;;;;5.40;4.07;;;;;;;-141.84;100.00;100065.22;4916887;29;20226;-64
2023/12/17 02:52:37;;;;;;;7.00;4.10;;;;;;;-141.84;100.00;98472.84;4916669;29;20289;-64
2023/12/17 02:55:07;;;;;;;8.30;4.40;;;;;;;-141.84;100.00;92109.53;4909716;29;20280;-65
2023/12/17 02:57:37;;;;;;;8.87;4.50;;;;;;;-141.84;100.00;91049.97;4915979;29;20234;-65
2023/12/17 03:00:07;;;;;;;8.03;4.20;;;;;;;-141.84;100.00;91844.63;4915910;29;20205;-60
2023/12/17 03:02:36;;;;;;;6.73;4.43;;;;;;;-141.84;100.00;92374.47;4916507;29;20738;-57
2023/12/17 03:05:05;;;;;;;7.97;4.67;;;;;;;-141.84;100.00;88931.63;4915258;29;20222;-58
2023/12/17 03:07:34;;;;;;;7.23;4.23;;;;;;;-141.84;100.00;87079.03;4916214;29;20233;-58
2023/12/17 03:10:02;;;;;;;8.43;4.60;;;;;;;-141.84;100.00;85756.25;4916785;29;20258;-57
2023/12/17 03:12:31;;;;;;;6.93;4.00;;;;;;;-141.84;100.00;79412.97;4915862;29;20234;-56
2023/12/17 03:15:01;;;;;;;8.43;4.03;;;;;;;-141.84;100.00;84169.50;4916401;29;20233;-58
2023/12/17 03:17:29;;;;;;;7.13;4.13;;;;;;;-141.84;100.00;87079.03;4915938;29;20669;-57
2023/12/17 03:19:58;;;;;;;8.07;4.17;;;;;;;-141.84;100.00;86285.31;4915363;29;20230;-58
2023/12/17 03:22:26;;;;;;;6.23;4.07;;;;;;;-141.84;100.00;81526.28;4915469;29;20281;-57
2023/12/17 03:24:55;;;;;;;8.20;4.80;;;;;;;-141.84;100.00;81526.28;4915291;29;20230;-56
2023/12/17 03:27:24;;;;;;;6.80;4.30;;;;;;;-141.84;100.00;84433.91;4915257;29;20234;-57
2023/12/17 03:29:53;;;;;;;6.70;4.00;;;;;;;-141.84;100.00;84169.50;4915597;29;20206;-56
2023/12/17 03:32:23;;;;;;;5.50;3.80;;;;;;;-141.84;100.00;82583.34;4934429;29;20305;-57
2023/12/17 03:34:52;;;;;;;7.20;4.20;;;;;;;-141.84;100.00;79941.19;4934001;29;20320;-58
2023/12/17 03:37:21;;;;;;;6.03;3.83;;;;;;;-141.84;100.00;80997.84;4934074;29;20293;-57
2023/12/17 03:39:50;;;;;;;5.27;3.63;;;;;;;-141.84;99.76;78356.72;4933957;29;20316;-58
2023/12/17 03:42:18;;;;;;;4.63;3.93;;;;;;;-141.84;97.84;71234.38;4935063;29;20240;-57
2023/12/17 03:44:47;;;;;;;6.97;3.90;;;;;;;-141.84;99.44;76245.09;4935072;29;20193;-58
2023/12/17 03:47:16;;;;;;;7.80;4.43;;;;;;;-141.84;98.64;74134.56;4933996;29;20229;-56
2023/12/17 03:49:46;;;;;;;5.33;3.80;;;;;;;-141.84;99.66;76772.88;4926163;29;20367;-57
2023/12/17 03:52:14;;;;;;;4.80;4.27;;;;;;;-141.84;98.40;74134.56;4934938;29;20221;-58
2023/12/17 03:54:43;;;;;;;7.73;4.10;;;;;;;-141.84;98.26;72025.13;4933779;29;20232;-56
2023/12/17 03:57:11;;;;;;;9.50;4.50;;;;;;;-141.84;99.83;77828.72;4935426;29;20272;-57
2023/12/17 03:59:40;;;;;;;5.83;4.23;;;;;;;-141.84;99.89;78092.72;4934250;29;20209;-57
2023/12/17 04:02:08;;;;;;;4.70;4.07;;;;;;;-141.84;100.00;81526.28;4933813;29;20225;-55
2023/12/17 04:04:37;;;;;;;6.90;4.60;;;;;;;-141.84;100.00;82319.06;4926920;29;20217;-58
2023/12/17 04:07:07;;;;;;;6.97;4.57;;;;;;;-141.84;99.97;79148.88;4933520;29;20233;-58
2023/12/17 04:09:36;;;;;;;7.67;4.47;;;;;;;-141.84;100.00;79412.97;4933694;29;20341;-57
2023/12/17 04:12:05;;;;;;;6.40;4.10;;;;;;;-141.84;100.00;79412.97;4934226;29;20217;-56
2023/12/17 04:14:33;;;;;;;4.47;3.70;;;;;;;-141.84;98.92;75453.50;4933820;29;20209;-56
2023/12/17 04:17:02;;;;;;;6.17;4.23;;;;;;;-141.84;100.00;79941.19;4932703;29;20722;-57
2023/12/17 04:19:31;;;;;;;5.23;3.93;;;;;;;-141.84;100.00;84433.91;4927756;29;20225;-58
2023/12/17 04:21:59;;;;;;;6.67;4.30;;;;;;;-141.84;100.00;87079.03;4933322;29;20632;-57
2023/12/17 04:24:29;;;;;;;8.00;4.10;;;;;;;-141.84;100.00;87079.03;4925333;29;20660;-55
2023/12/17 04:26:58;;;;;;;7.70;4.63;;;;;;;-141.84;99.65;77828.72;4933556;29;20253;-57
2023/12/17 04:29:26;;;;;;;6.27;4.60;;;;;;;-141.84;100.00;81526.28;4933671;29;20193;-56
2023/12/17 04:31:55;;;;;;;7.50;4.50;;;;;;;-141.84;100.00;81790.53;4933520;29;20912;-57
2023/12/17 04:34:24;;;;;;;5.63;4.27;;;;;;;-141.84;100.00;81262.06;4933300;29;20662;-57
2023/12/17 04:36:53;;;;;;;6.73;4.77;;;;;;;-141.84;100.00;86549.84;4933467;29;20236;-58
2023/12/17 04:39:22;;;;;;;5.93;4.60;;;;;;;-141.84;100.00;79941.19;4933867;29;20300;-59
2023/12/17 04:41:52;;;;;;;6.53;4.60;;;;;;;-141.84;100.00;81526.28;4935424;29;20213;-58
2023/12/17 04:44:21;;;;;;;7.03;4.33;;;;;;;-141.84;100.00;83640.72;4934271;29;20233;-59
2023/12/17 04:46:49;;;;;;;5.37;4.50;;;;;;;-141.84;100.00;84433.91;4932906;29;20715;-55
2023/12/17 04:49:18;;;;;;;6.77;5.03;;;;;;;-141.84;100.00;84698.34;4939921;29;20904;-56
2023/12/17 04:51:47;;;;;;;6.50;4.53;;;;;;;-141.84;100.00;86814.44;4934476;29;20239;-56
2023/12/17 04:54:15;;;;;;;7.20;4.70;;;;;;;-141.84;100.00;87079.03;4940640;29;20320;-57
2023/12/17 04:56:44;;;;;;;7.80;4.50;;;;;;;-141.84;100.00;88666.94;4933293;29;20647;-55
2023/12/17 04:59:14;;;;;;;8.13;4.83;;;;;;;-141.84;100.00;83640.72;4932792;29;20304;-56
2023/12/17 05:01:42;;;;;;;5.70;4.83;;;;;;;-141.84;100.00;87343.63;4932993;29;20229;-57
2023/12/17 05:04:11;;;;;;;5.67;4.50;;;;;;;-141.84;100.00;82054.78;4932580;29;20308;-57
2023/12/17 05:06:40;;;;;;;4.73;4.23;;;;;;;-141.84;100.00;85227.25;4934588;29;20265;-57
2023/12/17 05:09:08;;;;;;;5.13;3.93;;;;;;;-141.84;99.83;79941.19;4932759;29;20641;-58
2023/12/17 05:11:37;;;;;;;7.23;4.47;;;;;;;-141.84;100.00;80733.66;4933044;29;20209;-57
2023/12/17 05:14:05;;;;;;;7.43;4.87;;;;;;;-141.84;100.00;82054.78;4933309;29;20596;-57
2023/12/17 05:16:35;;;;;;;6.20;4.77;;;;;;;-141.84;100.00;82054.78;4932815;29;20313;-57
2023/12/17 05:19:04;;;;;;;8.57;5.50;;;;;;;-141.84;100.00;85227.25;4932379;29;20241;-56
2023/12/17 05:21:33;;;;;;;5.77;4.50;;;;;;;-141.84;100.00;80997.84;4932701;29;20229;-57
2023/12/17 05:24:02;;;;;;;4.50;4.10;;;;;;;-141.84;100.00;84962.78;4933102;29;20499;-58
2023/12/17 05:26:31;;;;;;;5.67;4.40;;;;;;;-141.84;100.00;85491.75;4932958;29;20225;-57
2023/12/17 05:28:59;;;;;;;6.77;4.57;;;;;;;-141.84;100.00;84698.34;4933872;29;20332;-57
2023/12/17 05:31:28;;;;;;;6.30;4.43;;;;;;;-141.84;100.00;84962.78;4935825;29;20312;-52
2023/12/17 05:33:58;;;;;;;5.53;4.60;;;;;;;-141.84;100.00;86285.31;4936031;29;20229;-54
2023/12/17 05:36:27;;;;;;;5.07;4.43;;;;;;;-141.84;100.00;85491.75;4936303;29;20235;-57
2023/12/17 05:38:56;;;;;;;5.10;4.60;;;;;;;-141.84;100.00;85756.25;4936266;29;20201;-63
2023/12/17 05:41:24;;;;;;;5.70;4.27;;;;;;;-141.84;100.00;79677.06;4937091;29;20219;-65
2023/12/17 05:43:53;;;;;;;6.10;4.53;;;;;;;-141.84;100.00;80997.84;4937003;29;20312;-66
2023/12/17 05:46:21;;;;;;;6.53;5.30;;;;;;;-141.84;100.00;86814.44;4936981;29;20252;-64
2023/12/17 05:48:50;;;;;;;7.97;4.60;;;;;;;-141.84;100.00;87608.25;4936767;29;20217;-65
2023/12/17 05:51:20;;;;;;;6.77;4.60;;;;;;;-141.84;100.00;85227.25;4937441;29;20233;-65
2023/12/17 05:53:49;;;;;;;6.70;4.60;;;;;;;-141.84;100.00;88402.22;4936952;29;20201;-65
2023/12/17 05:56:18;;;;;;;6.63;4.80;;;;;;;-141.84;100.00;82319.06;4936074;29;20225;-65
2023/12/17 05:58:46;;;;;;;7.20;4.63;;;;;;;-141.84;100.00;80997.84;4936432;29;20319;-65
2023/12/17 06:01:15;;;;;;;7.23;4.17;;;;;;;-141.84;99.95;79412.97;4936734;29;20288;-65
2023/12/17 06:03:44;;;;;;;6.47;4.40;;;;;;;-141.84;99.57;77828.72;4935650;29;20281;-57
2023/12/17 06:06:15;;;;;;;7.10;4.80;;;;;;;-141.84;100.00;80469.50;4936445;29;20198;-58
2023/12/17 06:08:45;;;;;;;5.93;4.63;;;;;;;-141.84;99.07;75717.34;4936331;29;20221;-57
2023/12/17 06:11:17;;;;;;;7.13;5.23;;;;;;;-141.84;97.96;73343.38;4935706;29;20709;-58
2023/12/17 06:13:46;;;;;;;6.83;4.70;;;;;;;-141.84;96.89;69653.38;4935150;29;20635;-57
2023/12/17 06:16:14;;;;;;;6.17;4.30;;;;;;;-141.84;97.74;70443.78;4935218;29;20245;-57
2023/12/17 06:18:43;;;;;;;5.57;4.60;;;;;;;-141.84;98.60;72552.38;4934997;29;20233;-57
2023/12/17 06:21:22;;;;;;;7.63;5.10;;;;;;;-141.84;100.00;82847.66;4927402;29;20206;-57
2023/12/17 06:23:57;;;;;;;7.20;4.50;;;;;;;-141.84;100.00;83112.00;4935630;29;20857;-54
2023/12/17 06:26:26;;;;;;;6.37;4.50;;;;;;;-141.84;100.00;82054.78;4934788;29;20225;-55
2023/12/17 06:28:54;;;;;;;5.33;4.70;;;;;;;-141.84;100.00;85491.75;4935143;29;20257;-62
2023/12/17 06:31:23;;;;;;;7.33;5.10;;;;;;;-141.84;100.00;86020.75;4934809;29;20240;-57
2023/12/17 06:33:53;;;;;;;7.47;5.10;;;;;;;-141.84;100.00;83112.00;4934964;29;20233;-57
2023/12/17 06:36:22;;;;;;;6.57;5.10;;;;;;;-141.84;99.07;77564.72;4935173;29;20325;-56
2023/12/17 06:38:53;;;;;;;7.70;5.30;;;;;;;-141.84;98.88;75189.69;4936891;29;20283;-58
2023/12/17 06:41:21;;;;;;;5.87;4.70;;;;;;;-141.84;100.00;83112.00;4935526;29;20217;-54
2023/12/17 06:43:50;;;;;;;8.20;5.87;;;;;;;-141.84;100.00;87872.91;4931213;29;20312;-54
2023/12/17 06:46:18;;;;;;;5.90;5.27;;;;;;;-141.84;100.00;88137.56;4934680;29;20307;-55
2023/12/17 06:48:50;;;;;;;9.13;7.07;;;;;;;-141.84;100.00;89461.13;4935079;29;20309;-57
2023/12/17 06:51:19;;;;;;;6.60;5.30;;;;;;;-141.84;100.00;87343.63;4935074;29;20225;-58
2023/12/17 06:53:48;;;;;;;7.63;5.07;;;;;;;-141.84;100.00;82847.66;4928980;29;20214;-59
2023/12/17 06:56:20;;;;;;;6.07;5.33;;;;;;;-141.84;100.00;87343.63;4935537;29;20686;-60
2023/12/17 06:58:49;;;;;;;7.17;4.97;;;;;;;-141.84;100.00;84433.91;4935513;29;20221;-56
2023/12/17 07:01:21;;;;;;;7.53;5.23;;;;;;;-141.84;100.00;85491.75;4937663;29;20253;-57
2023/12/17 07:03:51;;;;;;;7.37;5.30;;;;;;;-141.84;100.00;86020.75;4939053;29;20253;-57
2023/12/17 07:06:19;;;;;;;7.40;5.17;;;;;;;-141.84;100.00;82054.78;4941393;29;20224;-57
2023/12/17 07:08:48;;;;;;;6.20;4.97;;;;;;;-141.84;99.51;77036.81;4936310;29;20213;-56
2023/12/17 07:11:17;;;;;;;7.87;5.10;;;;;;;-141.84;100.00;82319.06;4937105;29;20225;-55
2023/12/17 07:13:47;;;;;;;5.90;5.27;;;;;;;-141.84;100.00;86549.84;4934780;29;20313;-57
2023/12/17 07:16:21;;;;;;;6.37;4.80;;;;;;;-141.84;100.00;83376.34;4934726;29;20221;-57
2023/12/17 07:18:49;;;;;;;7.17;5.30;;;;;;;-141.84;100.00;80469.50;4934578;29;20273;-57
2023/12/17 07:21:19;;;;;;;6.67;4.97;;;;;;;-141.84;99.68;78884.81;4935116;29;20241;-56
2023/12/17 07:23:49;;;;;;;7.57;5.13;;;;;;;-141.84;100.00;80469.50;4941069;29;20209;-58
2023/12/17 07:26:18;;;;;;;5.37;4.47;;;;;;;-141.84;100.00;79412.97;4934129;29;20225;-57
2023/12/17 07:28:52;;;;;;;6.40;5.33;;;;;;;-141.84;100.00;83640.72;4932834;29;20263;-57
2023/12/17 07:31:20;;;;;;;7.23;5.33;;;;;;;-141.84;100.00;83905.09;4932933;29;20221;-58
2023/12/17 07:33:49;;;;;;;6.30;5.17;;;;;;;-141.84;99.41;77828.72;4933517;29;20287;-57
2023/12/17 07:36:19;;;;;;;6.60;5.27;;;;;;;-141.84;99.94;79677.06;4934323;29;20256;-58
2023/12/17 07:38:48;;;;;;;7.33;4.73;;;;;;;-141.84;100.00;80733.66;4934935;29;20190;-57
2023/12/17 07:41:17;;;;;;;6.83;5.70;;;;;;;-141.84;100.00;82847.66;4934112;29;20225;-53
2023/12/17 07:43:45;;;;;;;7.27;5.57;;;;;;;-141.84;100.00;85227.25;4933755;29;20321;-56
2023/12/17 07:46:15;;;;;;;6.67;5.63;;;;;;;-141.84;100.00;84698.34;4933682;29;20681;-57
2023/12/17 07:48:44;;;;;;;6.53;5.70;;;;;;;-141.84;100.00;81790.53;4899515;29;20237;-55
2023/12/17 07:51:13;;;;;;;9.80;6.23;;;;;;;-141.84;100.00;81526.28;4934767;29;20741;-56
2023/12/17 07:53:41;;;;;;;7.27;5.83;;;;;;;-141.84;100.00;83376.34;4934600;29;20223;-57
2023/12/17 07:56:10;;;;;;;6.30;5.13;;;;;;;-141.84;99.97;80205.34;4933716;29;20316;-56
2023/12/17 07:58:39;;;;;;;7.17;6.10;;;;;;;-141.84;98.54;74398.31;4933438;29;20252;-58
2023/12/17 08:01:09;;;;;;;8.43;6.33;;;;;;;-141.84;98.36;75453.50;4926708;29;20264;-58
2023/12/17 08:03:40;;;;;;;6.97;5.93;;;;;;;-141.84;98.82;75717.34;4933509;29;20226;-57
2023/12/17 08:06:09;;;;;;;8.40;6.27;;;;;;;-141.84;98.96;77036.81;4933496;29;20202;-57
2023/12/17 08:08:38;;;;;;;6.40;5.67;;;;;;;-141.84;99.73;78884.81;4933831;29;20214;-60
2023/12/17 08:11:11;;;;;;;8.10;5.70;;;;;;;-141.84;100.00;83112.00;4933560;29;20308;-56
2023/12/17 08:13:40;;;;;;;6.97;6.23;;;;;;;-141.84;100.00;80997.84;4933481;29;20333;-57
2023/12/17 08:16:10;;;;;;;8.30;6.03;;;;;;;-141.84;99.12;77300.78;4933496;29;20233;-57
2023/12/17 08:18:40;;;;;;;5.97;5.40;;;;;;;-141.84;99.87;79412.97;4933821;29;20296;-58
2023/12/17 08:21:08;;;;;;;6.67;5.77;;;;;;;-141.84;100.00;82583.34;4926191;29;20194;-58
2023/12/17 08:23:38;;;;;;;7.00;5.93;;;;;;;-141.84;100.00;83112.00;4933987;29;20204;-58
2023/12/17 08:26:11;;;;;;;6.77;6.00;;;;;;;-141.84;100.00;84169.50;4933990;29;20320;-58
2023/12/17 08:28:39;;;;;;;8.13;6.00;;;;;;;-141.84;99.20;78356.72;4933297;29;20240;-57
2023/12/17 08:31:09;;;;;;;7.10;6.07;;;;;;;-141.84;97.42;72552.38;4933778;29;20661;-57
2023/12/17 08:33:40;;;;;;;7.60;6.00;;;;;;;-141.84;96.57;68599.69;4933644;29;20296;-57
2023/12/17 08:36:10;;;;;;;8.80;5.90;;;;;;;-141.84;97.55;70707.31;4933144;29;20194;-55
2023/12/17 08:38:38;;;;;;;6.60;5.33;;;;;;;-141.84;96.26;67283.00;4933616;29;20247;-57
2023/12/17 08:41:07;;;;;;;8.03;6.00;;;;;;;-141.84;94.36;58866.47;4933717;29;20309;-58
2023/12/17 08:43:36;;;;;;;8.37;7.10;;;;;;;-141.84;94.45;59129.22;4932947;29;20312;-57
2023/12/17 08:46:06;;;;;;;7.87;6.53;;;;;;;-141.84;94.47;58341.03;4932724;29;20652;-58
2023/12/17 08:48:34;;;;;;;6.57;5.97;;;;;;;-141.84;95.05;60706.06;4932417;29;20225;-56
2023/12/17 08:51:08;;;;;;;6.17;5.57;;;;;;;-141.84;95.19;61757.66;4932590;29;20224;-58
2023/12/17 08:53:36;;;;;;;6.27;5.63;;;;;;;-141.84;94.65;58603.75;4929874;29;20209;-58
2023/12/17 08:56:08;;;;;;;8.57;5.50;;;;;;;-141.84;95.08;60968.94;4934078;29;20312;-58
2023/12/17 08:58:37;;;;;;;6.63;5.47;;;;;;;-141.84;93.70;53877.56;4932009;29;20721;-57
2023/12/17 09:01:06;;;;;;;5.83;5.13;;;;;;;-141.84;92.15;47060.84;4900719;29;20225;-56
2023/12/17 09:03:34;;;;;;;6.70;5.13;;;;;;;-141.84;90.60;38384.91;4934789;29;20257;-59
2023/12/17 09:06:04;;;;;;;6.30;5.70;;;;;;;-141.84;91.12;39916.72;4938297;29;20197;-57
2023/12/17 09:08:33;;;;;;;5.80;5.20;;;;;;;-141.84;90.42;36427.09;4938734;29;20229;-55
2023/12/17 09:11:02;;;;;;;7.57;5.37;;;;;;;-141.84;91.59;41126.25;4938612;29;20299;-57
2023/12/17 09:13:31;;;;;;;5.63;4.87;;;;;;;-141.84;90.73;37678.41;4942931;28;20249;-56
2023/12/17 09:15:59;;;;;;;6.87;5.30;;;;;;;-141.84;89.03;29561.00;4939667;29;20237;-56
2023/12/17 09:18:27;;;;;;;5.97;5.30;;;;;;;-141.84;90.37;34535.53;4939428;29;20263;-57
2023/12/17 09:20:59;;;;;;;6.83;5.47;;;;;;;-141.84;90.47;35525.06;4940037;29;20205;-59
2023/12/17 09:23:27;;;;;;;5.70;5.10;;;;;;;-141.84;91.35;39882.00;4939492;29;20286;-56
2023/12/17 09:25:57;;;;;;;6.10;5.50;;;;;;;-141.84;90.00;33083.28;4939431;29;21013;-56
2023/12/17 09:28:26;;;;;;;6.97;5.60;;;;;;;-141.84;90.05;32791.69;4940202;29;20233;-57
2023/12/17 09:30:55;;;;;;;5.43;4.80;;;;;;;-141.84;89.90;31266.72;4939060;29;20221;-56
2023/12/17 09:33:23;;;;;;;6.23;5.17;;;;;;;-141.84;90.23;33613.53;4938982;29;20244;-57
2023/12/17 09:35:52;;;;;;;5.53;5.00;;;;;;;-141.84;90.37;33527.88;4938868;28;20237;-57
2023/12/17 09:38:21;;;;;;;5.60;5.10;;;;;;;-141.84;91.03;36637.31;4940714;29;20770;-56
2023/12/17 09:40:50;;;;;;;6.17;4.97;;;;;;;-141.84;90.50;35525.06;4936892;29;20694;-58
2023/12/17 09:43:24;;;;;;;6.40;5.30;;;;;;;-141.84;90.93;37527.34;4934935;29;20225;-57
2023/12/17 09:45:53;;;;;;;6.13;5.00;;;;;;;-141.84;89.66;31311.56;4943022;29;20284;-58
2023/12/17 09:48:23;;;;;;;5.80;5.07;;;;;;;-141.84;88.89;27501.69;4936364;29;20253;-59
2023/12/17 09:50:52;;;;;;;4.97;4.47;;;;;;;-141.84;87.99;24893.97;4945057;29;20205;-59
2023/12/17 09:53:23;;;;;;;5.57;4.57;;;;;;;-141.84;87.05;23343.63;4947375;29;20225;-65
2023/12/17 09:55:51;;;;;;;5.77;5.17;;;;;;;-141.84;87.01;22786.28;4945973;29;20296;-66
2023/12/17 09:58:21;;;;;;;6.23;4.97;;;;;;;-141.84;87.33;23557.22;4943608;29;20651;-58
2023/12/17 10:00:49;;;;;;;6.20;4.90;;;;;;;-141.84;87.14;23376.16;4940329;29;20228;-58
2023/12/17 10:03:19;;;;;;;5.63;4.90;;;;;;;-141.84;88.51;25934.00;4941153;29;20232;-57
2023/12/17 10:05:50;;;;;;;6.23;4.70;;;;;;;-141.84;89.23;28171.72;4939000;29;20236;-55
2023/12/17 10:08:19;;;;;;;6.03;5.10;;;;;;;-141.84;88.30;25235.88;4946356;29;20229;-59
2023/12/17 10:10:48;;;;;;;8.50;5.10;;;;;;;-141.84;87.74;24930.59;4935891;29;20321;-56
2023/12/17 10:13:20;;;;;;;6.00;4.93;;;;;;;-141.84;86.94;22499.50;4939468;29;20233;-55
2023/12/17 10:15:51;;;;;;;5.37;4.87;;;;;;;-141.84;87.97;24375.09;4932475;29;20742;-55
2023/12/17 10:18:21;;;;;;;6.07;4.50;;;;;;;-141.84;86.58;22224.97;4939763;29;20237;-59
2023/12/17 10:20:50;;;;;;;4.83;4.30;;;;;;;-141.84;86.41;22005.34;4931356;29;20237;-55
2023/12/17 10:23:19;;;;;;;4.53;4.07;;;;;;;-141.84;85.58;21106.63;4937228;29;20244;-58
2023/12/17 10:25:47;;;;;;;4.77;3.97;;;;;;;-141.84;87.17;22641.88;4933664;29;20285;-58
2023/12/17 10:28:16;;;;;;;4.73;3.90;;;;;;;-141.84;85.98;21236.75;4934770;29;20209;-54
2023/12/17 10:30:47;;;;;;;5.27;4.53;;;;;;;-141.84;86.50;22029.75;4934245;29;20229;-55
2023/12/17 10:33:26;;;;;;;4.80;4.20;;;;;;;-141.84;84.87;20525.22;4933874;29;20292;-56
2023/12/17 10:35:55;;;;;;;4.93;4.30;;;;;;;-141.84;85.58;20974.50;4934347;29;20642;-58
2023/12/17 10:38:24;;;;;;;5.53;3.97;;;;;;;-141.84;84.74;20326.03;4934734;29;20232;-58
2023/12/17 10:40:53;;;;;;;5.23;4.20;;;;;;;-141.84;83.57;19679.72;4936237;29;20738;-56
2023/12/17 10:43:23;;;;;;;4.67;4.10;;;;;;;-141.84;84.81;20366.69;4934870;29;20281;-58
2023/12/17 10:45:55;;;;;;;5.43;4.53;;;;;;;-141.84;84.54;20132.94;4935428;29;20198;-58
2023/12/17 10:48:25;;;;;;;5.20;4.37;;;;;;;-141.84;84.97;20346.34;4927864;29;20234;-57
2023/12/17 10:50:57;;;;;;;4.40;4.00;;;;;;;-141.84;83.42;19637.03;4934597;29;20229;-58
2023/12/17 10:53:25;;;;;;;4.30;3.63;;;;;;;-141.84;84.68;20218.31;4935168;29;20237;-57
2023/12/17 10:55:54;;;;;;;6.57;4.10;;;;;;;-141.84;85.49;20569.94;4934999;29;20221;-56
2023/12/17 10:58:24;;;;;;;4.87;4.37;;;;;;;-141.84;87.20;22621.53;4935055;29;20241;-55
2023/12/17 11:00:53;;;;;;;6.43;4.40;;;;;;;-141.84;87.43;23032.38;4934995;29;20651;-59
2023/12/17 11:03:25;;;;;;;4.77;4.10;;;;;;;-141.84;86.28;21964.66;4934756;29;20225;-54
2023/12/17 11:05:58;;;;;;;5.23;4.30;;;;;;;-141.84;85.53;20761.03;4933723;29;20233;-58
2023/12/17 11:08:28;;;;;;;4.87;4.20;;;;;;;-141.84;85.66;20704.13;4934280;29;20259;-57
2023/12/17 11:10:58;;;;;;;5.20;4.53;;;;;;;-141.84;84.46;20080.09;4934948;29;20233;-57
2023/12/17 11:13:27;;;;;;;6.13;4.10;;;;;;;-141.84;85.42;20777.28;4934312;29;20758;-56
2023/12/17 11:15:56;;;;;;;5.30;4.33;;;;;;;-141.84;84.70;20277.25;4935284;29;20208;-56
2023/12/17 11:18:42;;;;;;;5.27;4.27;;;;;;;-141.84;84.14;19964.25;4934598;29;20347;-58
2023/12/17 11:21:11;;;;;;;4.90;4.40;;;;;;;-141.84;83.07;19517.13;4928179;29;20320;-56